Brashear, MO (63533)

1:22 PM CDT on July 24, 2014 (GMT -0500)
Kirksville Regional (KIRK) Elev 965 ft | 40.10 °N, 92.55 °W | Change Station

Current weather conditions updated 27 minutes ago

Partly Cloudy
Partly Cloudy
77 °F
Feels Like 77 °F
N
0
Wind Variable Wind from North

Today is forecast to be Cooler than yesterday.

Today
High -- | Low -- °F
--% Chance of Precip.
Yesterday
High -- | Low -- °F
Precip. -- in
6:00 AM 8:31 PM
Waning Crescent, 4% visible
Pressure 30.17 in
Visibility 10.0 miles
Clouds Scattered Clouds 3600 ft
Dew Point 60 °F
Humidity 56%
Rainfall 0.00 in
Snow Depth Not available.
UV 9 out of 12
Pollen 5.50 out of 12
Air Quality Not available.
Flu Activity Not available.
METAR KIRK 241755Z AUTO 00000KT 10SM SCT036 25/16 A3018 RMK AO2 SLP217 T02500156 10250 20156 58002

More Conditions Fewer Conditions

Pressure 30.17 in
Visibility 10.0 miles
Clouds Scattered Clouds 3600 ft
Dew Point 60 °F
Humidity 56%
Rainfall 0.00 in
Snow Depth Not available.
UV 9 out of 12
Pollen 5.50 out of 12
Air Quality Not available.
Flu Activity Not available.
METAR KIRK 241755Z AUTO 00000KT 10SM SCT036 25/16 A3018 RMK AO2 SLP217 T02500156 10250 20156 58002

More Conditions Fewer Conditions

10-Day Weather Forecast

Almanac

Astronomy

Jul. 24, 2014 Rise Set
Actual Time 6:00 AM CDT 8:31 PM CDT
Civil Twilight 5:29 AM CDT 9:02 PM CDT
Nautical Twilight 4:50 AM CDT 9:41 PM CDT
Astronomical Twilight 4:06 AM CDT 10:24 PM CDT
Moon 4:08 AM CDT 6:47 PM CDT
Length of Visible Light 15h 33m
Length of Day
14h 31m
Tomorrow will be 1m 46s shorter.
Waning Crescent, 4% of the Moon is Illuminated
Today
Waning Crescent
Jul 26
New
Aug 3
First Quarter
Aug 10
Full
Aug 17
Last Quarter

Today's Extremes

State Highs State Lows

Community

WunderPhotos

Upload Photos

1,737,088 photos uploaded!

Nearby

Snow Depth

Station Depth Elevation
No new snow has been reported.

Earthquake Activity

City Distance Mag. Time & Date
No recent earthquake activity has been reported nearby.
Minimum magnitude displayed is 2.5.

Coastal Water Temperatures

Place Temperature
No Stations Reporting

Nearby Weather Stations

Station Location Temp. Heat Index Dew Point Humidity Wind Precip. Elev Updated Type
La Plata, La Plata, MO 82.6 °F 83 °F 60 °F 47% South  at  3.1 mph 0.00 in / hr 928 ft 1:22 PM CDT Rapid Fire
Lancaster, MO 77.5 °F 79 °F 63 °F 61% SE  at  4.0 mph - / hr 915 ft 1:21 PM CDT Normal

Show More Stations Show Fewer Stations